sensor_id;sensor_type;location;lat;lon;timestamp;pressure;altitude;pressure_sealevel;temperature;humidity
78615;BME280;67937;52.488;20.952;2023-08-20T00:02:12;100944.38;;;20.46;83.30
78615;BME280;67937;52.488;20.952;2023-08-20T00:04:43;100943.56;;;20.47;83.20
78615;BME280;67937;52.488;20.952;2023-08-20T00:07:13;100942.12;;;20.49;83.11
78615;BME280;67937;52.488;20.952;2023-08-20T00:09:42;100939.15;;;20.49;82.84
78615;BME280;67937;52.488;20.952;2023-08-20T00:12:10;100939.36;;;20.47;83.17
78615;BME280;67937;52.488;20.952;2023-08-20T00:14:55;100940.13;;;20.42;82.99
78615;BME280;67937;52.488;20.952;2023-08-20T00:17:25;100939.09;;;20.37;83.13
78615;BME280;67937;52.488;20.952;2023-08-20T00:19:54;100935.14;;;20.37;82.90
78615;BME280;67937;52.488;20.952;2023-08-20T00:22:23;100932.61;;;20.37;82.81
78615;BME280;67937;52.488;20.952;2023-08-20T00:24:54;100932.58;;;20.36;82.68
78615;BME280;67937;52.488;20.952;2023-08-20T00:27:22;100931.16;;;20.34;82.93
78615;BME280;67937;52.488;20.952;2023-08-20T00:29:50;100935.90;;;20.31;82.77
78615;BME280;67937;52.488;20.952;2023-08-20T00:32:18;100936.23;;;20.28;82.73
78615;BME280;67937;52.488;20.952;2023-08-20T00:34:46;100935.89;;;20.26;82.82
78615;BME280;67937;52.488;20.952;2023-08-20T00:37:14;100934.55;;;20.26;82.55
78615;BME280;67937;52.488;20.952;2023-08-20T00:39:42;100933.80;;;20.25;82.50
78615;BME280;67937;52.488;20.952;2023-08-20T00:42:10;100930.67;;;20.22;82.45
78615;BME280;67937;52.488;20.952;2023-08-20T00:44:40;100930.95;;;20.15;82.70
78615;BME280;67937;52.488;20.952;2023-08-20T00:47:12;100934.25;;;20.07;82.75
78615;BME280;67937;52.488;20.952;2023-08-20T00:49:40;100929.66;;;20.03;82.76
78615;BME280;67937;52.488;20.952;2023-08-20T00:52:09;100929.83;;;20.05;82.73
78615;BME280;67937;52.488;20.952;2023-08-20T00:54:42;100925.20;;;20.07;82.46
78615;BME280;67937;52.488;20.952;2023-08-20T00:57:13;100921.66;;;20.06;82.52
78615;BME280;67937;52.488;20.952;2023-08-20T00:59:42;100923.06;;;20.05;82.53
78615;BME280;67937;52.488;20.952;2023-08-20T01:02:11;100924.55;;;20.01;82.34
78615;BME280;67937;52.488;20.952;2023-08-20T01:04:38;100920.59;;;20.01;82.60
78615;BME280;67937;52.488;20.952;2023-08-20T01:10:13;100926.16;;;19.96;82.73
78615;BME280;67937;52.488;20.952;2023-08-20T01:12:46;100926.78;;;19.91;83.15
78615;BME280;67937;52.488;20.952;2023-08-20T01:15:14;100928.61;;;19.89;83.27
78615;BME280;67937;52.488;20.952;2023-08-20T01:17:42;100930.59;;;19.89;83.14
78615;BME280;67937;52.488;20.952;2023-08-20T01:20:13;100928.91;;;19.91;83.22
78615;BME280;67937;52.488;20.952;2023-08-20T01:30:44;100933.95;;;19.94;82.66
78615;BME280;67937;52.488;20.952;2023-08-20T01:33:14;100933.02;;;19.94;82.68
78615;BME280;67937;52.488;20.952;2023-08-20T01:35:42;100931.60;;;19.94;82.46
78615;BME280;67937;52.488;20.952;2023-08-20T01:38:10;100926.99;;;19.92;82.37
78615;BME280;67937;52.488;20.952;2023-08-20T01:40:38;100929.10;;;19.91;82.38
78615;BME280;67937;52.488;20.952;2023-08-20T01:43:06;100926.55;;;19.90;82.29
78615;BME280;67937;52.488;20.952;2023-08-20T01:45:34;100923.70;;;19.88;82.46
78615;BME280;67937;52.488;20.952;2023-08-20T01:48:02;100923.45;;;19.85;82.62
78615;BME280;67937;52.488;20.952;2023-08-20T01:50:31;100924.48;;;19.82;82.81
78615;BME280;67937;52.488;20.952;2023-08-20T01:52:59;100927.73;;;19.74;83.32
78615;BME280;67937;52.488;20.952;2023-08-20T01:55:27;100935.44;;;19.71;83.26
78615;BME280;67937;52.488;20.952;2023-08-20T01:57:55;100944.60;;;19.74;83.16
78615;BME280;67937;52.488;20.952;2023-08-20T02:00:23;100942.91;;;19.76;83.02
78615;BME280;67937;52.488;20.952;2023-08-20T02:02:51;100943.89;;;19.77;83.11
78615;BME280;67937;52.488;20.952;2023-08-20T02:05:19;100945.19;;;19.75;83.12
78615;BME280;67937;52.488;20.952;2023-08-20T02:07:47;100948.59;;;19.73;83.06
78615;BME280;67937;52.488;20.952;2023-08-20T02:10:15;100948.48;;;19.74;83.05
78615;BME280;67937;52.488;20.952;2023-08-20T02:12:43;100945.19;;;19.73;83.20
78615;BME280;67937;52.488;20.952;2023-08-20T02:15:11;100946.61;;;19.73;82.98
78615;BME280;67937;52.488;20.952;2023-08-20T02:17:39;100946.73;;;19.72;83.21
78615;BME280;67937;52.488;20.952;2023-08-20T02:20:07;100950.28;;;19.69;83.13
78615;BME280;67937;52.488;20.952;2023-08-20T02:22:36;100952.66;;;19.64;83.36
78615;BME280;67937;52.488;20.952;2023-08-20T02:25:04;100948.42;;;19.62;83.05
78615;BME280;67937;52.488;20.952;2023-08-20T02:27:32;100948.36;;;19.61;83.29
78615;BME280;67937;52.488;20.952;2023-08-20T02:30:00;100947.52;;;19.62;83.22
78615;BME280;67937;52.488;20.952;2023-08-20T02:32:29;100946.91;;;19.61;83.30
78615;BME280;67937;52.488;20.952;2023-08-20T02:34:58;100947.91;;;19.60;83.24
78615;BME280;67937;52.488;20.952;2023-08-20T02:37:26;100946.48;;;19.62;83.36
78615;BME280;67937;52.488;20.952;2023-08-20T02:39:54;100939.16;;;19.61;83.45
78615;BME280;67937;52.488;20.952;2023-08-20T02:42:22;100941.91;;;19.59;83.43
78615;BME280;67937;52.488;20.952;2023-08-20T02:44:50;100941.77;;;19.54;83.61
78615;BME280;67937;52.488;20.952;2023-08-20T02:47:18;100940.52;;;19.52;83.61
78615;BME280;67937;52.488;20.952;2023-08-20T02:49:46;100943.02;;;19.54;83.43
78615;BME280;67937;52.488;20.952;2023-08-20T02:52:14;100936.94;;;19.49;83.64
78615;BME280;67937;52.488;20.952;2023-08-20T02:54:41;100935.28;;;19.44;83.56
78615;BME280;67937;52.488;20.952;2023-08-20T02:57:09;100936.20;;;19.46;83.33
78615;BME280;67937;52.488;20.952;2023-08-20T02:59:37;100935.98;;;19.46;83.37
78615;BME280;67937;52.488;20.952;2023-08-20T03:02:05;100934.84;;;19.45;83.26
78615;BME280;67937;52.488;20.952;2023-08-20T03:04:33;100933.52;;;19.44;83.05
78615;BME280;67937;52.488;20.952;2023-08-20T03:07:02;100932.85;;;19.42;82.86
78615;BME280;67937;52.488;20.952;2023-08-20T03:09:30;100930.94;;;19.38;82.88
78615;BME280;67937;52.488;20.952;2023-08-20T03:11:58;100934.27;;;19.34;82.95
78615;BME280;67937;52.488;20.952;2023-08-20T03:14:26;100933.70;;;19.31;82.89
78615;BME280;67937;52.488;20.952;2023-08-20T03:16:54;100934.95;;;19.28;83.19
78615;BME280;67937;52.488;20.952;2023-08-20T03:19:22;100939.36;;;19.24;83.00
78615;BME280;67937;52.488;20.952;2023-08-20T03:21:50;100941.36;;;19.26;83.31
78615;BME280;67937;52.488;20.952;2023-08-20T03:24:18;100947.33;;;19.27;83.23
78615;BME280;67937;52.488;20.952;2023-08-20T03:26:45;100947.92;;;19.22;83.26
78615;BME280;67937;52.488;20.952;2023-08-20T03:29:14;100949.27;;;19.14;83.57
78615;BME280;67937;52.488;20.952;2023-08-20T03:31:42;100951.34;;;19.07;83.50
78615;BME280;67937;52.488;20.952;2023-08-20T03:34:09;100951.76;;;19.10;83.26
78615;BME280;67937;52.488;20.952;2023-08-20T03:36:37;100947.92;;;19.11;83.18
78615;BME280;67937;52.488;20.952;2023-08-20T03:39:05;100948.61;;;19.11;83.11
78615;BME280;67937;52.488;20.952;2023-08-20T03:41:33;100948.94;;;19.12;83.05
78615;BME280;67937;52.488;20.952;2023-08-20T03:44:01;100948.58;;;19.12;83.22
78615;BME280;67937;52.488;20.952;2023-08-20T03:46:30;100948.16;;;19.11;83.35
78615;BME280;67937;52.488;20.952;2023-08-20T03:48:58;100945.66;;;19.07;83.46
78615;BME280;67937;52.488;20.952;2023-08-20T03:51:26;100945.01;;;19.08;83.53
78615;BME280;67937;52.488;20.952;2023-08-20T03:53:54;100944.02;;;19.12;83.42
78615;BME280;67937;52.488;20.952;2023-08-20T03:56:21;100943.15;;;19.14;83.16
78615;BME280;67937;52.488;20.952;2023-08-20T03:58:50;100947.41;;;19.16;83.16
78615;BME280;67937;52.488;20.952;2023-08-20T04:01:19;100951.77;;;19.17;83.35
78615;BME280;67937;52.488;20.952;2023-08-20T04:03:47;100954.27;;;19.19;83.64
78615;BME280;67937;52.488;20.952;2023-08-20T04:06:15;100949.45;;;19.20;83.49
78615;BME280;67937;52.488;20.952;2023-08-20T04:08:43;100948.79;;;19.23;83.42
78615;BME280;67937;52.488;20.952;2023-08-20T04:11:11;100954.08;;;19.26;83.41
78615;BME280;67937;52.488;20.952;2023-08-20T04:13:38;100957.05;;;19.26;83.48
78615;BME280;67937;52.488;20.952;2023-08-20T04:16:10;100961.97;;;19.24;83.62
78615;BME280;67937;52.488;20.952;2023-08-20T04:18:37;100960.89;;;19.26;83.94
78615;BME280;67937;52.488;20.952;2023-08-20T04:21:06;100959.14;;;19.31;83.81
78615;BME280;67937;52.488;20.952;2023-08-20T04:23:34;100963.52;;;19.36;83.68
78615;BME280;67937;52.488;20.952;2023-08-20T04:26:02;100963.23;;;19.41;83.91
78615;BME280;67937;52.488;20.952;2023-08-20T04:28:30;100961.45;;;19.44;83.89
78615;BME280;67937;52.488;20.952;2023-08-20T04:30:58;100960.76;;;19.44;84.20
78615;BME280;67937;52.488;20.952;2023-08-20T04:33:26;100960.61;;;19.43;84.71
78615;BME280;67937;52.488;20.952;2023-08-20T04:35:54;100959.14;;;19.44;84.68
78615;BME280;67937;52.488;20.952;2023-08-20T04:38:22;100960.56;;;19.46;84.42
78615;BME280;67937;52.488;20.952;2023-08-20T04:40:50;100965.70;;;19.49;84.54
78615;BME280;67937;52.488;20.952;2023-08-20T04:43:18;100963.56;;;19.54;84.61
78615;BME280;67937;52.488;20.952;2023-08-20T04:45:46;100962.98;;;19.61;84.70
78615;BME280;67937;52.488;20.952;2023-08-20T04:48:14;100962.32;;;19.69;84.29
78615;BME280;67937;52.488;20.952;2023-08-20T04:50:42;100959.90;;;19.76;84.25
78615;BME280;67937;52.488;20.952;2023-08-20T04:53:09;100957.91;;;19.83;84.58
78615;BME280;67937;52.488;20.952;2023-08-20T04:55:38;100956.48;;;19.88;84.71
78615;BME280;67937;52.488;20.952;2023-08-20T04:58:05;100958.86;;;19.92;84.55
78615;BME280;67937;52.488;20.952;2023-08-20T05:00:33;100959.27;;;19.98;84.63
78615;BME280;67937;52.488;20.952;2023-08-20T05:03:01;100961.05;;;20.05;84.41
78615;BME280;67937;52.488;20.952;2023-08-20T05:05:32;100960.54;;;20.13;84.63
78615;BME280;67937;52.488;20.952;2023-08-20T05:08:00;100961.81;;;20.21;84.73
78615;BME280;67937;52.488;20.952;2023-08-20T05:10:29;100965.23;;;20.29;84.49
78615;BME280;67937;52.488;20.952;2023-08-20T05:12:56;100968.37;;;20.35;84.52
78615;BME280;67937;52.488;20.952;2023-08-20T05:15:24;100966.83;;;20.42;84.81
78615;BME280;67937;52.488;20.952;2023-08-20T05:17:52;100960.86;;;20.52;84.72
78615;BME280;67937;52.488;20.952;2023-08-20T05:20:20;100963.14;;;20.61;84.41
78615;BME280;67937;52.488;20.952;2023-08-20T05:22:48;100962.31;;;20.69;84.52
78615;BME280;67937;52.488;20.952;2023-08-20T05:25:16;100963.95;;;20.77;84.74
78615;BME280;67937;52.488;20.952;2023-08-20T05:27:44;100967.85;;;20.84;85.41
78615;BME280;67937;52.488;20.952;2023-08-20T05:30:12;100966.27;;;20.88;85.76
78615;BME280;67937;52.488;20.952;2023-08-20T05:32:40;100971.91;;;20.92;85.75
78615;BME280;67937;52.488;20.952;2023-08-20T05:35:08;100972.14;;;20.97;85.91
78615;BME280;67937;52.488;20.952;2023-08-20T05:37:36;100976.28;;;21.03;86.04
78615;BME280;67937;52.488;20.952;2023-08-20T05:40:04;100976.30;;;21.12;86.38
78615;BME280;67937;52.488;20.952;2023-08-20T05:42:33;100976.36;;;21.19;86.66
78615;BME280;67937;52.488;20.952;2023-08-20T05:45:00;100976.85;;;21.23;86.61
78615;BME280;67937;52.488;20.952;2023-08-20T05:47:28;100984.23;;;21.34;86.79
78615;BME280;67937;52.488;20.952;2023-08-20T05:49:56;100986.55;;;21.42;87.18
78615;BME280;67937;52.488;20.952;2023-08-20T05:52:24;100982.01;;;21.46;87.01
78615;BME280;67937;52.488;20.952;2023-08-20T05:54:52;100987.09;;;21.55;86.91
78615;BME280;67937;52.488;20.952;2023-08-20T05:57:20;100983.25;;;21.62;86.38
78615;BME280;67937;52.488;20.952;2023-08-20T05:59:49;100980.37;;;21.72;86.29
78615;BME280;67937;52.488;20.952;2023-08-20T06:02:17;100979.29;;;21.78;86.18
78615;BME280;67937;52.488;20.952;2023-08-20T06:04:45;100978.66;;;21.88;85.49
78615;BME280;67937;52.488;20.952;2023-08-20T06:07:13;100978.33;;;21.94;85.25
78615;BME280;67937;52.488;20.952;2023-08-20T06:09:41;100981.20;;;22.03;85.17
78615;BME280;67937;52.488;20.952;2023-08-20T06:12:09;100985.27;;;22.12;85.26
78615;BME280;67937;52.488;20.952;2023-08-20T06:14:36;100987.09;;;22.24;84.84
78615;BME280;67937;52.488;20.952;2023-08-20T06:17:04;100989.60;;;22.32;84.58
78615;BME280;67937;52.488;20.952;2023-08-20T06:19:33;100989.77;;;22.39;84.10
78615;BME280;67937;52.488;20.952;2023-08-20T06:22:01;100990.27;;;22.46;83.57
78615;BME280;67937;52.488;20.952;2023-08-20T06:24:29;100991.34;;;22.53;83.60
78615;BME280;67937;52.488;20.952;2023-08-20T06:26:57;100991.68;;;22.64;83.65
78615;BME280;67937;52.488;20.952;2023-08-20T06:29:25;100990.39;;;22.76;83.65
78615;BME280;67937;52.488;20.952;2023-08-20T06:31:53;100992.45;;;22.89;83.47
78615;BME280;67937;52.488;20.952;2023-08-20T06:34:21;100993.92;;;22.98;83.24
78615;BME280;67937;52.488;20.952;2023-08-20T06:36:49;100993.00;;;23.08;83.02
78615;BME280;67937;52.488;20.952;2023-08-20T06:39:17;100990.09;;;23.23;82.76
78615;BME280;67937;52.488;20.952;2023-08-20T06:41:46;100996.97;;;23.36;82.29
78615;BME280;67937;52.488;20.952;2023-08-20T06:44:14;100997.01;;;23.46;82.08
78615;BME280;67937;52.488;20.952;2023-08-20T06:46:42;101001.51;;;23.56;81.29
78615;BME280;67937;52.488;20.952;2023-08-20T06:49:10;101000.63;;;23.61;81.22
78615;BME280;67937;52.488;20.952;2023-08-20T06:51:38;101001.59;;;23.68;81.11
78615;BME280;67937;52.488;20.952;2023-08-20T06:54:05;101002.11;;;23.77;80.79
78615;BME280;67937;52.488;20.952;2023-08-20T06:56:34;101003.11;;;23.87;80.64
78615;BME280;67937;52.488;20.952;2023-08-20T06:59:02;101001.37;;;23.97;80.65
78615;BME280;67937;52.488;20.952;2023-08-20T07:01:30;100999.95;;;24.07;80.50
78615;BME280;67937;52.488;20.952;2023-08-20T07:03:58;101000.08;;;24.20;80.12
78615;BME280;67937;52.488;20.952;2023-08-20T07:06:26;101002.23;;;24.34;79.50
78615;BME280;67937;52.488;20.952;2023-08-20T07:08:54;101003.55;;;24.46;79.15
78615;BME280;67937;52.488;20.952;2023-08-20T07:11:22;101004.77;;;24.58;78.53
78615;BME280;67937;52.488;20.952;2023-08-20T07:13:50;101006.38;;;24.65;78.43
78615;BME280;67937;52.488;20.952;2023-08-20T07:16:18;101006.54;;;24.74;78.17
78615;BME280;67937;52.488;20.952;2023-08-20T07:18:45;101008.85;;;24.84;77.72
78615;BME280;67937;52.488;20.952;2023-08-20T07:21:13;101007.05;;;24.92;77.67
78615;BME280;67937;52.488;20.952;2023-08-20T07:23:41;101009.30;;;24.94;77.87
78615;BME280;67937;52.488;20.952;2023-08-20T07:26:11;101004.36;;;25.01;77.86
78615;BME280;67937;52.488;20.952;2023-08-20T07:28:40;101005.52;;;25.18;76.61
78615;BME280;67937;52.488;20.952;2023-08-20T07:31:29;101007.90;;;25.27;76.44
78615;BME280;67937;52.488;20.952;2023-08-20T07:33:59;101008.61;;;25.33;76.36
78615;BME280;67937;52.488;20.952;2023-08-20T07:36:27;101008.55;;;25.40;76.47
78615;BME280;67937;52.488;20.952;2023-08-20T07:38:55;101009.02;;;25.47;76.52
78615;BME280;67937;52.488;20.952;2023-08-20T07:41:23;101010.30;;;25.57;76.40
78615;BME280;67937;52.488;20.952;2023-08-20T07:43:51;101007.72;;;25.66;76.53
78615;BME280;67937;52.488;20.952;2023-08-20T07:46:20;101008.11;;;25.78;76.27
78615;BME280;67937;52.488;20.952;2023-08-20T07:48:48;101013.13;;;25.92;76.13
78615;BME280;67937;52.488;20.952;2023-08-20T07:51:16;101010.13;;;26.02;76.20
78615;BME280;67937;52.488;20.952;2023-08-20T07:53:44;101012.60;;;26.19;74.52
78615;BME280;67937;52.488;20.952;2023-08-20T07:56:12;101009.56;;;26.26;74.24
78615;BME280;67937;52.488;20.952;2023-08-20T07:58:40;101009.84;;;26.41;73.29
78615;BME280;67937;52.488;20.952;2023-08-20T08:01:08;101013.49;;;26.50;72.96
78615;BME280;67937;52.488;20.952;2023-08-20T08:03:36;101015.08;;;26.57;72.92
78615;BME280;67937;52.488;20.952;2023-08-20T08:06:04;101011.13;;;26.66;71.93
78615;BME280;67937;52.488;20.952;2023-08-20T08:08:32;101009.70;;;26.77;71.29
78615;BME280;67937;52.488;20.952;2023-08-20T08:11:00;101008.27;;;26.79;71.14
78615;BME280;67937;52.488;20.952;2023-08-20T08:13:28;101009.80;;;26.94;70.83
78615;BME280;67937;52.488;20.952;2023-08-20T08:15:56;101002.85;;;27.02;70.63
78615;BME280;67937;52.488;20.952;2023-08-20T08:18:24;101000.30;;;27.11;70.24
78615;BME280;67937;52.488;20.952;2023-08-20T08:20:52;101006.88;;;27.13;70.74
78615;BME280;67937;52.488;20.952;2023-08-20T08:23:20;101003.02;;;27.24;71.06
78615;BME280;67937;52.488;20.952;2023-08-20T08:25:48;101001.96;;;27.41;70.52
78615;BME280;67937;52.488;20.952;2023-08-20T08:28:16;101002.08;;;27.55;68.20
78615;BME280;67937;52.488;20.952;2023-08-20T08:30:44;100999.80;;;27.65;68.47
78615;BME280;67937;52.488;20.952;2023-08-20T08:33:12;101001.39;;;27.72;67.89
78615;BME280;67937;52.488;20.952;2023-08-20T08:35:40;100998.14;;;27.77;67.20
78615;BME280;67937;52.488;20.952;2023-08-20T08:38:08;101004.23;;;27.84;66.68
78615;BME280;67937;52.488;20.952;2023-08-20T08:40:36;101003.61;;;27.88;66.30
78615;BME280;67937;52.488;20.952;2023-08-20T08:43:05;100999.94;;;27.94;66.14
78615;BME280;67937;52.488;20.952;2023-08-20T08:45:33;101001.38;;;27.97;67.08
78615;BME280;67937;52.488;20.952;2023-08-20T08:48:02;101001.93;;;28.09;66.42
78615;BME280;67937;52.488;20.952;2023-08-20T08:50:31;101002.74;;;28.21;67.09
78615;BME280;67937;52.488;20.952;2023-08-20T08:53:00;101001.18;;;28.34;66.30
78615;BME280;67937;52.488;20.952;2023-08-20T08:55:28;100998.22;;;28.44;65.78
78615;BME280;67937;52.488;20.952;2023-08-20T08:57:56;100996.23;;;28.53;65.68
78615;BME280;67937;52.488;20.952;2023-08-20T09:00:25;101001.04;;;28.63;65.34
78615;BME280;67937;52.488;20.952;2023-08-20T09:02:53;101005.02;;;28.70;65.17
78615;BME280;67937;52.488;20.952;2023-08-20T09:05:21;101002.38;;;28.77;64.35
78615;BME280;67937;52.488;20.952;2023-08-20T09:07:55;101001.00;;;28.87;62.97
78615;BME280;67937;52.488;20.952;2023-08-20T09:10:26;101003.83;;;28.80;63.34
78615;BME280;67937;52.488;20.952;2023-08-20T09:12:55;101002.31;;;28.81;63.79
78615;BME280;67937;52.488;20.952;2023-08-20T09:15:33;100996.55;;;28.87;62.26
78615;BME280;67937;52.488;20.952;2023-08-20T09:18:03;100993.17;;;28.88;61.82
78615;BME280;67937;52.488;20.952;2023-08-20T09:20:37;100995.71;;;28.87;61.36
78615;BME280;67937;52.488;20.952;2023-08-20T09:23:11;100993.17;;;28.91;60.99
78615;BME280;67937;52.488;20.952;2023-08-20T09:25:41;100989.98;;;28.95;60.46
78615;BME280;67937;52.488;20.952;2023-08-20T09:28:09;100993.47;;;28.93;60.96
78615;BME280;67937;52.488;20.952;2023-08-20T09:30:37;100989.67;;;29.01;60.69
78615;BME280;67937;52.488;20.952;2023-08-20T09:33:11;100989.78;;;29.07;60.43
78615;BME280;67937;52.488;20.952;2023-08-20T09:35:48;100988.17;;;29.13;59.64
78615;BME280;67937;52.488;20.952;2023-08-20T09:38:19;100992.08;;;29.14;59.33
78615;BME280;67937;52.488;20.952;2023-08-20T09:40:49;100989.95;;;29.17;58.99
78615;BME280;67937;52.488;20.952;2023-08-20T09:43:19;100986.23;;;29.24;59.07
78615;BME280;67937;52.488;20.952;2023-08-20T09:45:47;100990.65;;;29.27;60.03
78615;BME280;67937;52.488;20.952;2023-08-20T09:48:18;100988.43;;;29.31;59.48
78615;BME280;67937;52.488;20.952;2023-08-20T09:50:48;100985.95;;;29.41;58.95
78615;BME280;67937;52.488;20.952;2023-08-20T09:53:40;100984.23;;;29.41;59.04
78615;BME280;67937;52.488;20.952;2023-08-20T09:56:30;100985.72;;;29.43;58.58
78615;BME280;67937;52.488;20.952;2023-08-20T09:58:59;100984.30;;;29.35;59.73
78615;BME280;67937;52.488;20.952;2023-08-20T10:01:29;100981.16;;;29.42;60.29
78615;BME280;67937;52.488;20.952;2023-08-20T10:03:58;100976.67;;;29.51;59.78
78615;BME280;67937;52.488;20.952;2023-08-20T10:06:28;100971.33;;;29.56;59.72
78615;BME280;67937;52.488;20.952;2023-08-20T10:08:56;100968.73;;;29.60;58.70
78615;BME280;67937;52.488;20.952;2023-08-20T10:11:26;100969.98;;;29.60;56.67
78615;BME280;67937;52.488;20.952;2023-08-20T10:13:54;100972.55;;;29.55;57.32
78615;BME280;67937;52.488;20.952;2023-08-20T10:16:22;100966.79;;;29.60;57.84
78615;BME280;67937;52.488;20.952;2023-08-20T10:18:51;100970.09;;;29.73;57.62
78615;BME280;67937;52.488;20.952;2023-08-20T10:21:24;100972.58;;;29.75;57.84
78615;BME280;67937;52.488;20.952;2023-08-20T10:23:54;100969.18;;;29.68;57.69
78615;BME280;67937;52.488;20.952;2023-08-20T10:26:22;100967.34;;;29.72;57.98
78615;BME280;67937;52.488;20.952;2023-08-20T10:31:57;100967.13;;;29.84;58.19
78615;BME280;67937;52.488;20.952;2023-08-20T10:34:32;100965.95;;;29.84;57.68
78615;BME280;67937;52.488;20.952;2023-08-20T10:37:08;100965.05;;;29.91;57.26
78615;BME280;67937;52.488;20.952;2023-08-20T10:39:36;100959.98;;;30.02;55.40
78615;BME280;67937;52.488;20.952;2023-08-20T10:47:46;100956.58;;;29.94;55.15
78615;BME280;67937;52.488;20.952;2023-08-20T10:50:16;100952.16;;;30.03;55.61
78615;BME280;67937;52.488;20.952;2023-08-20T10:52:48;100952.05;;;30.07;55.66
78615;BME280;67937;52.488;20.952;2023-08-20T10:55:22;100953.46;;;30.14;55.11
78615;BME280;67937;52.488;20.952;2023-08-20T10:57:57;100955.30;;;30.15;55.77
78615;BME280;67937;52.488;20.952;2023-08-20T11:00:26;100952.67;;;30.26;56.28
78615;BME280;67937;52.488;20.952;2023-08-20T11:02:54;100950.27;;;30.37;55.81
78615;BME280;67937;52.488;20.952;2023-08-20T11:05:23;100946.19;;;30.48;55.55
78615;BME280;67937;52.488;20.952;2023-08-20T11:07:51;100947.11;;;30.57;55.25
78615;BME280;67937;52.488;20.952;2023-08-20T11:10:19;100946.94;;;30.63;55.26
78615;BME280;67937;52.488;20.952;2023-08-20T11:12:47;100945.70;;;30.64;54.72
78615;BME280;67937;52.488;20.952;2023-08-20T11:15:15;100941.84;;;30.73;52.38
78615;BME280;67937;52.488;20.952;2023-08-20T11:17:47;100939.17;;;30.64;52.53
78615;BME280;67937;52.488;20.952;2023-08-20T11:20:15;100934.30;;;30.67;52.33
78615;BME280;67937;52.488;20.952;2023-08-20T11:22:43;100936.21;;;30.67;52.09
78615;BME280;67937;52.488;20.952;2023-08-20T11:25:24;100929.13;;;30.74;52.64
78615;BME280;67937;52.488;20.952;2023-08-20T11:27:52;100924.04;;;30.74;53.04
78615;BME280;67937;52.488;20.952;2023-08-20T11:30:20;100925.91;;;30.83;53.28
78615;BME280;67937;52.488;20.952;2023-08-20T11:32:49;100926.62;;;30.94;52.24
78615;BME280;67937;52.488;20.952;2023-08-20T11:35:20;100921.91;;;30.94;52.01
78615;BME280;67937;52.488;20.952;2023-08-20T11:37:49;100919.33;;;30.98;52.65
78615;BME280;67937;52.488;20.952;2023-08-20T11:40:20;100917.44;;;31.07;52.50
78615;BME280;67937;52.488;20.952;2023-08-20T11:42:48;100918.06;;;31.08;52.19
78615;BME280;67937;52.488;20.952;2023-08-20T11:45:16;100918.88;;;31.10;52.03
78615;BME280;67937;52.488;20.952;2023-08-20T11:47:44;100916.39;;;31.06;53.30
78615;BME280;67937;52.488;20.952;2023-08-20T11:50:12;100913.38;;;31.14;53.68
78615;BME280;67937;52.488;20.952;2023-08-20T11:52:40;100914.13;;;31.18;53.38
78615;BME280;67937;52.488;20.952;2023-08-20T11:55:08;100912.89;;;31.25;53.49
78615;BME280;67937;52.488;20.952;2023-08-20T11:57:37;100910.04;;;31.24;52.74
78615;BME280;67937;52.488;20.952;2023-08-20T12:00:06;100907.32;;;31.28;53.02
78615;BME280;67937;52.488;20.952;2023-08-20T12:02:40;100910.54;;;31.36;53.29
78615;BME280;67937;52.488;20.952;2023-08-20T12:05:08;100910.55;;;31.45;52.68
78615;BME280;67937;52.488;20.952;2023-08-20T12:07:36;100907.77;;;31.51;51.77
78615;BME280;67937;52.488;20.952;2023-08-20T12:10:21;100903.21;;;31.52;50.71
78615;BME280;67937;52.488;20.952;2023-08-20T12:12:49;100904.81;;;31.48;51.69
78615;BME280;67937;52.488;20.952;2023-08-20T12:15:18;100900.10;;;31.56;51.71
78615;BME280;67937;52.488;20.952;2023-08-20T12:20:27;100898.13;;;31.61;51.97
78615;BME280;67937;52.488;20.952;2023-08-20T12:22:58;100899.04;;;31.67;50.94
78615;BME280;67937;52.488;20.952;2023-08-20T12:25:27;100898.27;;;31.49;50.44
78615;BME280;67937;52.488;20.952;2023-08-20T12:27:55;100898.71;;;31.44;51.60
78615;BME280;67937;52.488;20.952;2023-08-20T12:30:23;100894.88;;;31.46;51.02
78615;BME280;67937;52.488;20.952;2023-08-20T12:32:51;100893.90;;;31.44;50.08
78615;BME280;67937;52.488;20.952;2023-08-20T12:35:19;100895.61;;;31.45;50.80
78615;BME280;67937;52.488;20.952;2023-08-20T12:37:47;100890.78;;;31.47;49.73
78615;BME280;67937;52.488;20.952;2023-08-20T12:40:15;100892.71;;;31.53;49.57
78615;BME280;67937;52.488;20.952;2023-08-20T12:42:43;100891.58;;;31.51;49.03
78615;BME280;67937;52.488;20.952;2023-08-20T12:45:11;100887.59;;;31.52;49.06
78615;BME280;67937;52.488;20.952;2023-08-20T12:47:40;100885.73;;;31.46;49.06
78615;BME280;67937;52.488;20.952;2023-08-20T12:50:08;100889.06;;;31.59;48.37
78615;BME280;67937;52.488;20.952;2023-08-20T12:52:37;100889.88;;;31.54;47.85
78615;BME280;67937;52.488;20.952;2023-08-20T12:55:05;100888.14;;;31.46;48.30
78615;BME280;67937;52.488;20.952;2023-08-20T12:57:34;100893.12;;;31.51;47.43
78615;BME280;67937;52.488;20.952;2023-08-20T13:00:03;100894.75;;;31.54;47.36
78615;BME280;67937;52.488;20.952;2023-08-20T13:02:38;100892.79;;;31.43;46.33
78615;BME280;67937;52.488;20.952;2023-08-20T13:05:06;100888.91;;;31.42;47.74
78615;BME280;67937;52.488;20.952;2023-08-20T13:07:35;100887.61;;;31.44;48.51
78615;BME280;67937;52.488;20.952;2023-08-20T13:10:04;100884.47;;;31.49;48.80
78615;BME280;67937;52.488;20.952;2023-08-20T13:12:33;100883.55;;;31.54;48.40